Latest Weather Observations for Charles Point

IDD60901

Issued at 7:01 pm CST Thursday 23 February 2017 (issued every 10 minutes, with the page automatically refreshed every 10 minutes)

About weather observations | Map of Darwin area stations | Latest observations for Darwin area | Other Formats
Station Details ID: 014031 Name: CHARLES POINT Lat: -12.39 Lon: 130.63 Height: 14.0 m
Data from the previous 72 hours. | See also: Recent months for locations in Northern Territory
Date/Time
CST
Temp
°C
App
Temp
°C
Dew
Point
°C
Rel
Hum
%
Delta-T
°C
Wind Press
QNH
hPa
Press
MSL
hPa
Rain since
9am
mm
Dir  Spd
km/h
Gust
km/h
Spd
kts
Gust
kts
23/07:00pm 29.7 35.4 25.0 76 3.3 WSW 4 11 2 6 1007.4 1007.2 0.0
23/06:30pm 30.6 35.7 25.0 72 3.9 WSW 7 15 4 8 1007.1 1006.9 0.0
23/06:00pm 31.1 35.5 24.5 68 4.6 WSW 9 22 5 12 1006.8 1006.6 0.0
23/05:30pm 31.9 36.8 25.2 67 4.7 W 9 22 5 12 1006.6 1006.4 0.0
23/05:00pm 31.6 35.9 25.5 70 4.3 W 13 22 7 12 1006.4 1006.2 0.0
23/04:30pm 31.8 35.9 25.2 68 4.7 W 13 22 7 12 1006.5 1006.3 0.0
23/04:00pm 31.9 36.0 25.7 69 4.4 W 15 24 8 13 1006.5 1006.3 0.0
23/03:30pm 31.9 36.0 25.7 69 4.4 W 15 22 8 12 1006.6 1006.4 0.0
23/03:00pm 32.1 36.3 25.9 70 4.4 W 15 26 8 14 1006.6 1006.4 0.0
23/02:30pm 32.0 36.0 25.6 69 4.6 W 15 22 8 12 1007.1 1006.9 0.0
23/02:00pm 32.1 35.1 25.2 67 4.9 WNW 19 26 10 14 1007.4 1007.2 0.0
23/01:30pm 32.0 35.0 25.3 67 4.8 WNW 19 26 10 14 1007.9 1007.7 0.0
23/01:00pm 33.1 38.8 25.9 66 5.1 WSW 7 15 4 8 1008.2 1008.0 0.0
23/12:30pm 32.1 36.2 25.7 69 4.6 W 15 24 8 13 1008.8 1008.7 0.0
23/12:00pm 32.3 37.1 25.1 65 5.1 WSW 9 15 5 8 1009.4 1009.3 0.0
23/11:30am 32.3 37.4 25.6 67 4.8 WSW 9 17 5 9 1009.6 1009.5 0.0
23/11:00am 31.9 37.3 25.5 69 4.5 SW 7 17 4 9 1010.0 1009.9 0.0
23/10:30am 31.2 35.4 24.1 66 5.0 SW 9 20 5 11 1010.2 1010.1 0.0
23/10:00am 30.9 35.3 24.5 68 4.5 WSW 9 17 5 9 1010.3 1010.2 0.0
23/09:30am 30.6 35.5 24.7 71 4.1 W 7 13 4 7 1010.3 1010.2 0.0
23/09:00am 30.4 35.8 25.2 74 3.7 WSW 6 13 3 7 1010.4 1010.3 0.0
23/08:30am 29.4 34.2 24.5 75 3.4 WSW 7 13 4 7 1010.1 1010.0 0.0
23/08:00am 28.6 33.7 24.6 79 2.8 W 6 9 3 5 1009.7 1009.6 0.0
23/07:30am 27.1 31.9 24.2 84 2.0 WSW 6 9 3 5 1009.6 1009.5 0.0
23/07:00am 26.4 30.8 23.5 84 2.0 SW 6 9 3 5 1009.3 1009.2 0.0
23/06:30am 26.6 31.1 23.7 84 2.0 WSW 6 11 3 6 1009.2 1009.1 0.0
23/06:00am 26.4 30.8 23.5 84 2.0 SW 6 7 3 4 1009.0 1008.9 0.0
23/05:30am 26.4 30.5 22.9 81 2.4 SW 6 7 3 4 1008.8 1008.7 0.0
23/05:00am 26.6 30.9 23.3 82 2.3 WSW 6 9 3 5 1008.7 1008.6 0.0
23/04:30am 26.9 31.3 23.4 81 2.4 WSW 6 7 3 4 1008.7 1008.6 0.0
23/04:00am 26.8 31.2 23.5 82 2.3 WSW 6 9 3 5 1008.5 1008.4 0.0
23/03:30am 26.5 31.1 23.2 82 2.3 WSW 4 9 2 5 1008.2 1008.0 0.0
23/03:00am 26.7 31.2 23.0 80 2.5 SW 4 6 2 3 1008.1 1007.9 0.0
23/02:30am 26.9 31.0 22.9 79 2.7 SW 6 11 3 6 1008.2 1008.0 0.0
23/02:00am 27.1 31.2 22.9 78 2.9 SW 6 9 3 5 1008.6 1008.5 0.0
23/01:30am 27.2 31.2 22.8 77 3.0 SW 6 9 3 5 1009.2 1009.1 0.0
23/01:00am 27.3 31.5 23.1 78 2.9 WSW 6 11 3 6 1009.6 1009.5 0.0
23/12:30am 27.4 31.6 23.2 78 2.9 WSW 6 9 3 5 1010.2 1010.1 0.0
23/12:00am 27.3 31.9 23.1 78 2.9 WSW 4 7 2 4 1010.6 1010.5 0.0
 
Date/Time
CST
Temp
°C
App
Temp
°C
Dew
Point
°C
Rel
Hum
%
Delta-T
°C
Wind Press
QNH
hPa
Press
MSL
hPa
Rain since
9am
mm
Dir  Spd
km/h
Gust
km/h
Spd
kts
Gust
kts
22/11:30pm 27.5 32.2 23.3 78 2.9 WSW 4 7 2 4 1010.8 1010.7 0.0
22/11:00pm 27.8 32.4 23.8 79 2.8 WSW 6 9 3 5 1010.7 1010.6 0.0
22/10:30pm 27.9 32.3 23.5 77 3.0 WSW 6 9 3 5 1010.6 1010.5 0.0
22/10:00pm 28.1 32.4 23.7 77 3.0 SW 7 13 4 7 1010.3 1010.2 0.0
22/09:30pm 28.0 32.7 24.0 79 2.8 WSW 6 11 3 6 1010.2 1010.1 0.0
22/09:00pm 28.2 32.7 24.0 78 2.9 WSW 7 15 4 8 1009.9 1009.8 0.0
22/08:30pm 28.3 33.0 24.3 79 2.8 WSW 7 13 4 7 1009.6 1009.5 0.0
22/08:00pm 28.5 33.1 24.1 77 3.0 WSW 7 15 4 8 1009.5 1009.4 0.0
22/07:30pm 28.6 33.2 24.2 77 3.1 W 7 13 4 7 1009.1 1009.0 0.0
22/07:00pm 29.1 33.3 23.5 72 3.9 WSW 7 15 4 8 1008.9 1008.8 0.0
22/06:30pm 29.9 33.4 23.6 69 4.4 W 11 17 6 9 1008.5 1008.4 0.0
22/06:00pm 30.3 33.9 23.7 68 4.6 WSW 11 20 6 11 1008.3 1008.1 0.0
22/05:30pm 30.8 34.6 24.0 67 4.7 WSW 11 22 6 12 1008.1 1007.9 0.0
22/05:00pm 31.0 34.6 24.4 68 4.6 WSW 13 28 7 15 1008.1 1007.9 0.0
22/04:30pm 31.7 35.9 24.8 67 4.9 W 11 20 6 11 1008.2 1008.0 0.0
22/04:00pm 31.6 35.4 24.0 64 5.3 WSW 11 20 6 11 1008.3 1008.1 0.0
22/03:30pm 32.1 36.0 24.2 63 5.5 W 11 24 6 13 1008.4 1008.2 0.0
22/03:00pm 32.0 35.7 25.1 67 4.9 W 15 24 8 13 1008.6 1008.5 0.0
22/02:30pm 31.9 35.7 24.7 65 5.1 W 13 22 7 12 1008.9 1008.8 0.0
22/02:00pm 31.8 35.2 24.7 66 5.0 W 15 28 8 15 1009.3 1009.2 0.0
22/01:30pm 31.8 35.2 24.7 66 5.0 W 15 24 8 13 1009.7 1009.6 0.0
22/01:00pm 31.5 35.5 25.1 69 4.5 W 13 24 7 13 1010.1 1010.0 0.0
22/12:30pm 31.7 36.1 25.1 68 4.7 WSW 11 20 6 11 1010.7 1010.6 0.0
22/12:00pm 31.5 35.5 24.4 66 5.0 W 11 22 6 12 1011.0 1010.9 0.0
22/11:30am 31.3 35.5 24.7 68 4.6 WSW 11 20 6 11 1011.4 1011.3 0.0
22/11:00am 31.1 34.8 25.2 71 4.2 WNW 15 24 8 13 1011.4 1011.3 0.0
22/10:30am 30.9 35.5 25.3 72 4.0 W 11 20 6 11 1011.6 1011.5 0.0
22/10:00am 30.8 35.5 24.9 71 4.1 W 9 15 5 8 1011.6 1011.5 0.0
22/09:30am 30.7 36.1 25.1 72 3.9 WSW 6 15 3 8 1011.7 1011.6 0.0
22/09:00am 29.9 35.1 24.8 74 3.6 WSW 6 11 3 6 1011.8 1011.7 0.0
22/08:30am 29.2 34.1 24.3 75 3.4 SW 6 11 3 6 1011.6 1011.5 0.0
22/08:00am 28.2 33.5 24.4 80 2.6 W 4 7 2 4 1011.4 1011.3 0.0
22/07:30am 26.9 32.1 24.2 85 1.9 WSW 4 7 2 4 1011.0 1010.9 0.0
22/07:00am 26.3 31.0 24.0 87 1.6 WSW 6 9 3 5 1010.8 1010.7 0.0
22/06:30am 25.9 30.8 23.6 87 1.6 WSW 4 9 2 5 1010.5 1010.4 0.0
22/06:00am 26.0 30.8 23.5 86 1.7 WSW 4 7 2 4 1010.2 1010.1 0.0
22/05:30am 26.2 31.1 23.7 86 1.7 WSW 4 7 2 4 1010.0 1009.9 0.0
22/05:00am 26.3 30.9 23.8 86 1.7 WSW 6 9 3 5 1009.7 1009.6 0.0
22/04:30am 26.4 31.4 23.9 86 1.7 SW 4 9 2 5 1009.3 1009.2 0.0
22/04:00am 26.2 30.7 23.7 86 1.7 WSW 6 9 3 5 1009.1 1009.0 0.0
22/03:30am 26.1 30.8 24.0 88 1.4 WSW 6 9 3 5 1008.9 1008.8 0.0
22/03:00am 26.1 31.2 24.0 88 1.4 SW 4 7 2 4 1009.0 1008.9 0.0
22/02:30am 26.4 31.4 23.9 86 1.7 SW 4 7 2 4 1009.0 1008.9 0.0
22/02:00am 26.8 31.6 24.1 85 1.9 WSW 6 9 3 5 1009.2 1009.1 0.0
22/01:30am 26.9 31.9 23.8 83 2.1 WSW 4 7 2 4 1009.4 1009.3 0.0
22/01:00am 27.1 31.7 23.8 82 2.3 WSW 6 9 3 5 1009.6 1009.5 0.0
22/12:30am 27.1 31.8 24.0 83 2.1 WSW 6 9 3 5 1009.9 1009.8 0.0
22/12:00am 27.2 32.1 24.3 84 2.0 WSW 6 11 3 6 1010.3 1010.2 0.0
 
Date/Time
CST
Temp
°C
App
Temp
°C
Dew
Point
°C
Rel
Hum
%
Delta-T
°C
Wind Press
QNH
hPa
Press
MSL
hPa
Rain since
9am
mm
Dir  Spd
km/h
Gust
km/h
Spd
kts
Gust
kts
21/11:30pm 27.3 32.1 24.2 83 2.1 SW 6 11 3 6 1010.5 1010.4 0.0
21/11:00pm 27.2 32.2 23.9 82 2.3 SW 4 7 2 4 1010.7 1010.6 0.0
21/10:30pm 27.3 32.2 23.7 81 2.5 SW 4 7 2 4 1010.6 1010.5 0.0
21/10:00pm 27.6 32.1 23.6 79 2.7 WSW 6 11 3 6 1010.5 1010.4 0.0
21/09:30pm 27.7 32.1 23.5 78 2.9 WSW 6 9 3 5 1010.2 1010.1 0.0
21/09:00pm 27.7 32.2 23.7 79 2.8 WSW 6 11 3 6 1009.9 1009.8 0.0
21/08:30pm 27.8 32.4 23.8 79 2.8 WSW 6 9 3 5 1009.8 1009.7 0.0
21/08:00pm 27.9 32.4 23.7 78 2.9 WSW 6 9 3 5 1009.3 1009.2 0.0
21/07:30pm 28.3 33.0 23.9 77 3.0 WSW 6 9 3 5 1009.1 1009.0 0.0
21/07:00pm 29.0 33.8 24.1 75 3.4 WSW 6 13 3 7 1009.0 1008.9 0.0
21/06:30pm 29.8 33.9 24.0 71 4.0 W 9 17 5 9 1008.8 1008.7 0.0
21/06:00pm 30.4 34.3 24.3 70 4.3 W 11 20 6 11 1008.6 1008.5 0.0
21/05:30pm 30.8 34.4 24.4 68 4.5 W 13 20 7 11 1008.4 1008.2 0.0
21/05:00pm 30.9 34.0 24.1 67 4.7 WNW 15 22 8 12 1008.5 1008.4 0.0
21/04:30pm 31.2 34.7 24.8 69 4.5 W 15 24 8 13 1008.3 1008.1 0.0
21/04:00pm 31.5 35.1 24.4 66 5.0 W 13 24 7 13 1008.2 1008.0 0.0
21/03:30pm 31.0 34.4 24.1 66 4.8 W 13 24 7 13 1008.5 1008.4 0.0
21/03:00pm 31.3 34.3 24.7 68 4.6 WNW 17 26 9 14 1008.5 1008.4 0.0
21/02:30pm 31.3 34.3 24.7 68 4.6 W 17 24 9 13 1008.8 1008.7 0.0
21/02:00pm 31.4 34.2 25.0 69 4.5 WNW 19 30 10 16 1009.2 1009.1 0.0
21/01:30pm 31.2 33.5 25.1 70 4.3 WNW 22 30 12 16 1009.9 1009.8 0.0
21/01:00pm 31.4 33.9 24.8 68 4.6 WNW 20 26 11 14 1010.5 1010.4 0.0
21/12:30pm 31.3 33.9 24.9 69 4.5 WNW 20 26 11 14 1011.1 1011.0 0.0
21/12:00pm 31.4 34.6 25.0 69 4.5 WNW 17 24 9 13 1011.5 1011.4 0.0
21/11:30am 31.4 34.8 25.3 70 4.3 WNW 17 22 9 12 1011.7 1011.6 0.0
21/11:00am 31.8 36.5 24.9 67 4.9 W 9 19 5 10 1012.1 1012.0 0.0
21/10:30am 31.4 35.8 23.5 63 5.5 SSW 6 11 3 6 1012.4 1012.3 0.0
21/10:00am 31.0 35.9 24.4 68 4.6 WSW 6 13 3 7 1012.4 1012.3 0.0
21/09:30am 30.4 35.0 24.1 69 4.4 SW 7 13 4 7 1012.3 1012.2 0.0
21/09:00am 29.8 34.9 24.7 74 3.6 W 6 13 3 7 1012.2 1012.1 1.0
21/08:30am 29.2 34.8 25.4 80 2.7 SSW 6 13 3 7 1011.7 1011.6 1.0
21/08:00am 27.8 33.6 25.2 86 1.8 SW 4 9 2 5 1011.3 1011.2 1.0
21/07:30am 26.6 32.3 25.0 91 1.1 SW 4 6 2 3 1010.7 1010.6 1.0
21/07:00am 26.1 31.5 24.5 91 1.1 SW 4 6 2 3 1010.1 1010.0 1.0
21/06:30am 26.4 31.9 24.6 90 1.2 SW 4 6 2 3 1009.5 1009.4 1.0
21/06:00am 26.6 32.2 24.8 90 1.3 WSW 4 7 2 4 1009.1 1009.0 1.0
21/05:30am 26.7 32.3 24.9 90 1.3 SW 4 9 2 5 1008.8 1008.7 1.0
21/05:00am 26.7 32.3 24.9 90 1.3 SW 4 7 2 4 1008.5 1008.4 1.0
21/04:30am 26.6 32.3 25.0 91 1.1 WSW 4 7 2 4 1008.4 1008.2 1.0
21/04:00am 26.3 31.8 24.7 91 1.1 WSW 4 6 2 3 1008.2 1008.0 1.0
21/03:30am 26.2 31.5 24.4 90 1.2 SW 4 6 2 3 1008.3 1008.1 1.0
21/03:00am 26.5 32.0 24.7 90 1.3 SW 4 7 2 4 1008.6 1008.5 1.0
21/02:30am 26.0 31.0 23.9 88 1.4 SW 4 6 2 3 1008.7 1008.6 1.0
21/02:00am 26.5 31.7 24.2 87 1.6 SW 4 6 2 3 1008.8 1008.7 1.0
21/01:30am 27.0 32.0 24.5 86 1.7 SW 6 9 3 5 1009.0 1008.9 1.0
21/01:00am 27.0 32.1 24.6 87 1.7 SW 6 9 3 5 1009.2 1009.1 1.0
21/12:30am 27.3 32.9 24.9 87 1.7 SW 4 7 2 4 1009.5 1009.4 1.0
21/12:00am 27.4 32.7 25.0 87 1.7 SW 6 9 3 5 1009.7 1009.6 1.0
 
Date/Time
CST
Temp
°C
App
Temp
°C
Dew
Point
°C
Rel
Hum
%
Delta-T
°C
Wind Press
QNH
hPa
Press
MSL
hPa
Rain since
9am
mm
Dir  Spd
km/h
Gust
km/h
Spd
kts
Gust
kts
20/11:30pm 27.3 32.6 24.9 87 1.7 SW 6 9 3 5 1009.9 1009.8 1.0
20/11:00pm 27.1 32.6 24.6 86 1.7 WSW 4 7 2 4 1009.9 1009.8 1.0
20/10:30pm 27.3 32.8 24.6 85 1.9 WSW 4 6 2 3 1009.9 1009.8 1.0
20/10:00pm 27.5 32.4 24.4 83 2.2 WSW 6 9 3 5 1009.8 1009.7 1.0
20/09:30pm 27.6 32.8 24.2 82 2.4 WSW 4 7 2 4 1009.5 1009.4 1.0
20/09:00pm 27.8 32.9 24.0 80 2.6 WSW 4 6 2 3 1009.3 1009.2 1.0
20/08:30pm 27.8 32.6 24.2 81 2.5 WSW 6 11 3 6 1009.0 1008.9 1.0
20/08:00pm 28.2 33.5 24.4 80 2.6 W 4 7 2 4 1008.7 1008.6 1.0
20/07:30pm 28.5 33.6 24.7 80 2.7 W 6 13 3 7 1008.4 1008.2 1.0

Latest Capital City Observations: Canberra | Sydney | Melbourne | Brisbane | Adelaide | Perth | Hobart | Darwin

Other Formats:

Comma delimited format used in spreadsheet applications
http://www.bom.gov.au/fwo/IDD60901/IDD60901.99510.axf

JavaScript Object Notation format (JSON) in row-major order
http://www.bom.gov.au/fwo/IDD60901/IDD60901.99510.json